sensor_id;sensor_type;location;lat;lon;timestamp;pressure;altitude;pressure_sealevel;temperature;humidity
5574;BME280;2563;52.242;7.956;2023-05-24T00:00:59;101399.91;;;6.28;100.00
5574;BME280;2563;52.242;7.956;2023-05-24T00:03:26;101393.06;;;6.26;100.00
5574;BME280;2563;52.242;7.956;2023-05-24T00:05:55;101397.38;;;6.30;100.00
5574;BME280;2563;52.242;7.956;2023-05-24T00:08:21;101399.91;;;6.31;100.00
5574;BME280;2563;52.242;7.956;2023-05-24T00:10:46;101399.06;;;6.34;100.00
5574;BME280;2563;52.242;7.956;2023-05-24T00:13:12;101401.66;;;6.32;100.00
5574;BME280;2563;52.242;7.956;2023-05-24T00:15:39;101400.75;;;6.29;100.00
5574;BME280;2563;52.242;7.956;2023-05-24T00:18:04;101391.38;;;6.29;100.00
5574;BME280;2563;52.242;7.956;2023-05-24T00:20:30;101393.09;;;6.30;100.00
5574;BME280;2563;52.242;7.956;2023-05-24T00:22:55;101393.91;;;6.23;100.00
5574;BME280;2563;52.242;7.956;2023-05-24T00:25:21;101390.44;;;6.20;100.00
5574;BME280;2563;52.242;7.956;2023-05-24T00:27:46;101392.13;;;6.17;100.00
5574;BME280;2563;52.242;7.956;2023-05-24T00:30:11;101381.91;;;6.16;100.00
5574;BME280;2563;52.242;7.956;2023-05-24T00:32:37;101377.63;;;6.15;100.00
5574;BME280;2563;52.242;7.956;2023-05-24T00:35:02;101368.22;;;6.09;100.00
5574;BME280;2563;52.242;7.956;2023-05-24T00:37:28;101363.91;;;6.02;100.00
5574;BME280;2563;52.242;7.956;2023-05-24T00:39:53;101357.94;;;6.03;100.00
5574;BME280;2563;52.242;7.956;2023-05-24T00:42:19;101357.94;;;6.03;100.00
5574;BME280;2563;52.242;7.956;2023-05-24T00:44:44;101348.56;;;6.01;100.00
5574;BME280;2563;52.242;7.956;2023-05-24T00:47:10;101346.88;;;6.00;100.00
5574;BME280;2563;52.242;7.956;2023-05-24T00:49:35;101334.06;;;5.95;100.00
5574;BME280;2563;52.242;7.956;2023-05-24T00:52:00;101330.59;;;5.93;100.00
5574;BME280;2563;52.242;7.956;2023-05-24T00:54:27;101323.78;;;5.92;100.00
5574;BME280;2563;52.242;7.956;2023-05-24T00:56:54;101312.63;;;5.84;100.00
5574;BME280;2563;52.242;7.956;2023-05-24T00:59:22;101311.75;;;5.82;100.00
5574;BME280;2563;52.242;7.956;2023-05-24T01:01:47;101303.28;;;5.83;100.00
5574;BME280;2563;52.242;7.956;2023-05-24T01:04:13;101304.97;;;5.81;100.00
5574;BME280;2563;52.242;7.956;2023-05-24T01:06:55;101287.88;;;5.76;100.00
5574;BME280;2563;52.242;7.956;2023-05-24T01:09:47;101287.03;;;5.73;100.00
5574;BME280;2563;52.242;7.956;2023-05-24T01:15:16;101281.03;;;5.71;100.00
5574;BME280;2563;52.242;7.956;2023-05-24T01:20:27;101270.81;;;5.69;100.00
5574;BME280;2563;52.242;7.956;2023-05-24T01:28:07;101278.41;;;5.62;100.00
5574;BME280;2563;52.242;7.956;2023-05-24T01:30:32;101264.75;;;5.57;100.00
5574;BME280;2563;52.242;7.956;2023-05-24T01:32:58;101246.88;;;5.55;100.00
5574;BME280;2563;52.242;7.956;2023-05-24T01:35:24;101253.66;;;5.53;100.00
5574;BME280;2563;52.242;7.956;2023-05-24T01:37:49;101255.31;;;5.45;100.00
5574;BME280;2563;52.242;7.956;2023-05-24T01:40:15;101267.25;;;5.49;100.00
5574;BME280;2563;52.242;7.956;2023-05-24T01:43:06;101273.22;;;5.52;100.00
5574;BME280;2563;52.242;7.956;2023-05-24T01:51:06;101280.81;;;5.43;100.00
5574;BME280;2563;52.242;7.956;2023-05-24T01:53:35;101293.56;;;5.42;100.00
5574;BME280;2563;52.242;7.956;2023-05-24T01:56:04;101291.81;;;5.36;100.00
5574;BME280;2563;52.242;7.956;2023-05-24T01:58:31;101291.00;;;5.40;100.00
5574;BME280;2563;52.242;7.956;2023-05-24T02:00:58;101295.25;;;5.37;100.00
5574;BME280;2563;52.242;7.956;2023-05-24T02:03:24;101302.91;;;5.40;100.00
5574;BME280;2563;52.242;7.956;2023-05-24T02:05:49;101311.41;;;5.37;100.00
5574;BME280;2563;52.242;7.956;2023-05-24T02:08:15;101320.69;;;5.30;100.00
5574;BME280;2563;52.242;7.956;2023-05-24T02:10:40;101309.63;;;5.31;100.00
5574;BME280;2563;52.242;7.956;2023-05-24T02:13:06;101315.56;;;5.27;100.00
5574;BME280;2563;52.242;7.956;2023-05-24T02:15:33;101318.94;;;5.25;100.00
5574;BME280;2563;52.242;7.956;2023-05-24T02:18:00;101326.56;;;5.23;100.00
5574;BME280;2563;52.242;7.956;2023-05-24T02:20:29;101323.16;;;5.21;100.00
5574;BME280;2563;52.242;7.956;2023-05-24T02:22:56;101334.22;;;5.20;100.00
5574;BME280;2563;52.242;7.956;2023-05-24T02:25:22;101338.44;;;5.18;100.00
5574;BME280;2563;52.242;7.956;2023-05-24T02:27:47;101340.94;;;5.14;100.00
5574;BME280;2563;52.242;7.956;2023-05-24T02:30:13;101345.16;;;5.10;100.00
5574;BME280;2563;52.242;7.956;2023-05-24T02:32:38;101342.63;;;5.10;100.00
5574;BME280;2563;52.242;7.956;2023-05-24T02:35:04;101340.06;;;5.10;100.00
5574;BME280;2563;52.242;7.956;2023-05-24T02:37:29;101350.28;;;5.13;100.00
5574;BME280;2563;52.242;7.956;2023-05-24T02:39:55;101365.66;;;5.19;100.00
5574;BME280;2563;52.242;7.956;2023-05-24T02:42:20;101368.19;;;5.16;100.00
5574;BME280;2563;52.242;7.956;2023-05-24T02:44:46;101369.94;;;5.22;100.00
5574;BME280;2563;52.242;7.956;2023-05-24T02:47:17;101368.31;;;5.28;100.00
5574;BME280;2563;52.242;7.956;2023-05-24T02:49:42;101373.53;;;5.38;100.00
5574;BME280;2563;52.242;7.956;2023-05-24T02:52:08;101378.75;;;5.50;100.00
5574;BME280;2563;52.242;7.956;2023-05-24T02:54:33;101382.19;;;5.53;100.00
5574;BME280;2563;52.242;7.956;2023-05-24T02:56:58;101385.69;;;5.63;100.00
5574;BME280;2563;52.242;7.956;2023-05-24T02:59:25;101390.84;;;5.68;100.00
5574;BME280;2563;52.242;7.956;2023-05-24T03:01:51;101406.19;;;5.69;100.00
5574;BME280;2563;52.242;7.956;2023-05-24T03:04:16;101405.34;;;5.70;100.00
5574;BME280;2563;52.242;7.956;2023-05-24T03:06:41;101408.78;;;5.72;100.00
5574;BME280;2563;52.242;7.956;2023-05-24T03:09:07;101417.38;;;5.81;100.00
5574;BME280;2563;52.242;7.956;2023-05-24T03:11:32;101424.25;;;5.88;100.00
5574;BME280;2563;52.242;7.956;2023-05-24T03:13:58;101445.69;;;6.01;100.00
5574;BME280;2563;52.242;7.956;2023-05-24T03:16:23;101444.03;;;6.06;100.00
5574;BME280;2563;52.242;7.956;2023-05-24T03:18:49;101444.94;;;6.12;100.00
5574;BME280;2563;52.242;7.956;2023-05-24T03:21:15;101450.09;;;6.18;100.00
5574;BME280;2563;52.242;7.956;2023-05-24T03:23:41;101460.34;;;6.22;100.00
5574;BME280;2563;52.242;7.956;2023-05-24T03:26:06;101460.41;;;6.28;100.00
5574;BME280;2563;52.242;7.956;2023-05-24T03:28:32;101455.34;;;6.34;100.00
5574;BME280;2563;52.242;7.956;2023-05-24T03:30:58;101459.63;;;6.36;100.00
5574;BME280;2563;52.242;7.956;2023-05-24T03:33:23;101469.00;;;6.39;100.00
5574;BME280;2563;52.242;7.956;2023-05-24T03:35:49;101469.06;;;6.42;100.00
5574;BME280;2563;52.242;7.956;2023-05-24T03:38:15;101478.44;;;6.45;100.00
5574;BME280;2563;52.242;7.956;2023-05-24T03:40:40;101489.53;;;6.48;100.00
5574;BME280;2563;52.242;7.956;2023-05-24T03:43:06;101500.69;;;6.56;100.00
5574;BME280;2563;52.242;7.956;2023-05-24T03:45:31;101506.69;;;6.58;100.00
5574;BME280;2563;52.242;7.956;2023-05-24T03:47:56;101521.22;;;6.64;100.00
5574;BME280;2563;52.242;7.956;2023-05-24T03:50:22;101523.84;;;6.72;100.00
5574;BME280;2563;52.242;7.956;2023-05-24T03:52:48;101527.28;;;6.77;100.00
5574;BME280;2563;52.242;7.956;2023-05-24T03:55:14;101528.19;;;6.84;100.00
5574;BME280;2563;52.242;7.956;2023-05-24T03:57:39;101524.81;;;6.88;100.00
5574;BME280;2563;52.242;7.956;2023-05-24T04:00:06;101528.25;;;6.90;100.00
5574;BME280;2563;52.242;7.956;2023-05-24T04:02:32;101547.00;;;6.93;100.00
5574;BME280;2563;52.242;7.956;2023-05-24T04:04:57;101556.44;;;6.94;100.00
5574;BME280;2563;52.242;7.956;2023-05-24T04:07:23;101553.03;;;7.01;100.00
5574;BME280;2563;52.242;7.956;2023-05-24T04:09:48;101564.19;;;7.07;100.00
5574;BME280;2563;52.242;7.956;2023-05-24T04:12:14;101572.75;;;7.15;100.00
5574;BME280;2563;52.242;7.956;2023-05-24T04:14:39;101580.50;;;7.24;100.00
5574;BME280;2563;52.242;7.956;2023-05-24T04:17:05;101590.75;;;7.27;100.00
5574;BME280;2563;52.242;7.956;2023-05-24T04:19:32;101582.22;;;7.27;100.00
5574;BME280;2563;52.242;7.956;2023-05-24T04:21:57;101587.38;;;7.31;100.00
5574;BME280;2563;52.242;7.956;2023-05-24T04:24:22;101587.38;;;7.34;100.00
5574;BME280;2563;52.242;7.956;2023-05-24T04:26:48;101595.94;;;7.33;100.00
5574;BME280;2563;52.242;7.956;2023-05-24T04:29:14;101606.22;;;7.41;100.00
5574;BME280;2563;52.242;7.956;2023-05-24T04:31:40;101609.63;;;7.44;100.00
5574;BME280;2563;52.242;7.956;2023-05-24T04:34:07;101603.69;;;7.47;100.00
5574;BME280;2563;52.242;7.956;2023-05-24T04:36:34;101612.28;;;7.58;100.00
5574;BME280;2563;52.242;7.956;2023-05-24T04:39:00;101608.06;;;7.68;100.00
5574;BME280;2563;52.242;7.956;2023-05-24T04:41:28;101604.66;;;7.75;100.00
5574;BME280;2563;52.242;7.956;2023-05-24T04:43:56;101614.13;;;7.85;100.00
5574;BME280;2563;52.242;7.956;2023-05-24T04:46:24;101611.56;;;7.92;100.00
5574;BME280;2563;52.242;7.956;2023-05-24T04:48:50;101617.56;;;7.97;100.00
5574;BME280;2563;52.242;7.956;2023-05-24T04:51:15;101617.59;;;7.98;100.00
5574;BME280;2563;52.242;7.956;2023-05-24T04:53:41;101620.19;;;8.06;100.00
5574;BME280;2563;52.242;7.956;2023-05-24T04:56:07;101616.78;;;8.13;100.00
5574;BME280;2563;52.242;7.956;2023-05-24T04:58:33;101621.09;;;8.22;100.00
5574;BME280;2563;52.242;7.956;2023-05-24T05:00:59;101619.38;;;8.33;100.00
5574;BME280;2563;52.242;7.956;2023-05-24T05:03:26;101623.69;;;8.39;100.00
5574;BME280;2563;52.242;7.956;2023-05-24T05:05:51;101618.59;;;8.42;100.00
5574;BME280;2563;52.242;7.956;2023-05-24T05:08:17;101633.16;;;8.41;100.00
5574;BME280;2563;52.242;7.956;2023-05-24T05:10:43;101623.72;;;8.40;100.00
5574;BME280;2563;52.242;7.956;2023-05-24T05:13:09;101625.47;;;8.43;100.00
5574;BME280;2563;52.242;7.956;2023-05-24T05:15:34;101622.91;;;8.50;100.00
5574;BME280;2563;52.242;7.956;2023-05-24T05:17:59;101633.19;;;8.64;100.00
5574;BME280;2563;52.242;7.956;2023-05-24T05:20:25;101633.19;;;8.72;100.00
5574;BME280;2563;52.242;7.956;2023-05-24T05:22:50;101638.34;;;8.84;100.00
5574;BME280;2563;52.242;7.956;2023-05-24T05:25:16;101646.03;;;9.01;100.00
5574;BME280;2563;52.242;7.956;2023-05-24T05:27:42;101641.75;;;9.05;100.00
5574;BME280;2563;52.242;7.956;2023-05-24T05:30:08;101635.75;;;9.16;100.00
5574;BME280;2563;52.242;7.956;2023-05-24T05:32:34;101629.75;;;9.34;100.00
5574;BME280;2563;52.242;7.956;2023-05-24T05:34:59;101635.72;;;9.41;100.00
5574;BME280;2563;52.242;7.956;2023-05-24T05:37:25;101642.53;;;9.61;100.00
5574;BME280;2563;52.242;7.956;2023-05-24T05:39:50;101647.63;;;9.82;100.00
5574;BME280;2563;52.242;7.956;2023-05-24T05:42:15;101649.34;;;9.80;100.00
5574;BME280;2563;52.242;7.956;2023-05-24T05:44:41;101635.63;;;9.76;100.00
5574;BME280;2563;52.242;7.956;2023-05-24T05:47:07;101624.53;;;9.64;100.00
5574;BME280;2563;52.242;7.956;2023-05-24T05:49:33;101631.38;;;9.65;100.00
5574;BME280;2563;52.242;7.956;2023-05-24T05:52:01;101630.50;;;9.75;100.00
5574;BME280;2563;52.242;7.956;2023-05-24T05:54:27;101632.25;;;9.57;100.00
5574;BME280;2563;52.242;7.956;2023-05-24T05:56:53;101616.88;;;9.48;100.00
5574;BME280;2563;52.242;7.956;2023-05-24T05:59:18;101613.44;;;9.55;100.00
5574;BME280;2563;52.242;7.956;2023-05-24T06:01:44;101607.44;;;9.53;100.00
5574;BME280;2563;52.242;7.956;2023-05-24T06:04:13;101606.53;;;9.64;100.00
5574;BME280;2563;52.242;7.956;2023-05-24T06:06:39;101598.78;;;9.77;100.00
5574;BME280;2563;52.242;7.956;2023-05-24T06:09:05;101596.19;;;9.76;100.00
5574;BME280;2563;52.242;7.956;2023-05-24T06:11:30;101589.38;;;9.70;100.00
5574;BME280;2563;52.242;7.956;2023-05-24T06:13:56;101589.31;;;9.84;100.00
5574;BME280;2563;52.242;7.956;2023-05-24T06:16:21;101585.91;;;9.79;100.00
5574;BME280;2563;52.242;7.956;2023-05-24T06:18:47;101573.00;;;9.94;100.00
5574;BME280;2563;52.242;7.956;2023-05-24T06:21:16;101578.06;;;10.00;100.00
5574;BME280;2563;52.242;7.956;2023-05-24T06:23:41;101582.31;;;10.14;100.00
5574;BME280;2563;52.242;7.956;2023-05-24T06:26:07;101581.38;;;10.29;100.00
5574;BME280;2563;52.242;7.956;2023-05-24T06:28:34;101570.22;;;10.34;100.00
5574;BME280;2563;52.242;7.956;2023-05-24T06:30:59;101569.31;;;10.41;100.00
5574;BME280;2563;52.242;7.956;2023-05-24T06:33:25;101558.03;;;10.55;100.00
5574;BME280;2563;52.242;7.956;2023-05-24T06:35:51;101558.00;;;10.61;100.00
5574;BME280;2563;52.242;7.956;2023-05-24T06:38:16;101550.81;;;10.94;100.00
5574;BME280;2563;52.242;7.956;2023-05-24T06:40:42;101554.78;;;11.28;100.00
5574;BME280;2563;52.242;7.956;2023-05-24T06:43:07;101553.88;;;11.33;100.00
5574;BME280;2563;52.242;7.956;2023-05-24T06:45:33;101541.78;;;11.38;100.00
5574;BME280;2563;52.242;7.956;2023-05-24T06:47:58;101532.34;;;11.37;100.00
5574;BME280;2563;52.242;7.956;2023-05-24T06:50:24;101532.97;;;11.57;100.00
5574;BME280;2563;52.242;7.956;2023-05-24T06:52:49;101519.38;;;11.43;100.00
5574;BME280;2563;52.242;7.956;2023-05-24T06:55:15;101524.31;;;11.61;100.00
5574;BME280;2563;52.242;7.956;2023-05-24T06:57:40;101513.06;;;11.68;100.00
5574;BME280;2563;52.242;7.956;2023-05-24T07:00:07;101505.69;;;11.38;100.00
5574;BME280;2563;52.242;7.956;2023-05-24T07:02:36;101501.69;;;11.14;100.00
5574;BME280;2563;52.242;7.956;2023-05-24T07:05:01;101497.28;;;11.22;100.00
5574;BME280;2563;52.242;7.956;2023-05-24T07:07:27;101511.13;;;11.13;100.00
5574;BME280;2563;52.242;7.956;2023-05-24T07:09:52;101504.16;;;11.21;100.00
5574;BME280;2563;52.242;7.956;2023-05-24T07:12:17;101509.94;;;11.42;100.00
5574;BME280;2563;52.242;7.956;2023-05-24T07:14:43;101501.97;;;11.62;100.00
5574;BME280;2563;52.242;7.956;2023-05-24T07:17:08;101508.50;;;11.86;100.00
5574;BME280;2563;52.242;7.956;2023-05-24T07:19:34;101508.69;;;11.70;100.00
5574;BME280;2563;52.242;7.956;2023-05-24T07:22:00;101512.28;;;11.62;100.00
5574;BME280;2563;52.242;7.956;2023-05-24T07:24:26;101498.47;;;11.64;100.00
5574;BME280;2563;52.242;7.956;2023-05-24T07:26:51;101499.22;;;11.74;100.00
5574;BME280;2563;52.242;7.956;2023-05-24T07:29:22;101502.75;;;11.65;100.00
5574;BME280;2563;52.242;7.956;2023-05-24T07:31:47;101495.38;;;12.04;100.00
5574;BME280;2563;52.242;7.956;2023-05-24T07:34:13;101488.00;;;12.36;100.00
5574;BME280;2563;52.242;7.956;2023-05-24T07:36:38;101495.66;;;12.40;100.00
5574;BME280;2563;52.242;7.956;2023-05-24T07:39:05;101492.09;;;12.47;100.00
5574;BME280;2563;52.242;7.956;2023-05-24T07:41:31;101501.28;;;12.64;100.00
5574;BME280;2563;52.242;7.956;2023-05-24T07:43:57;101511.69;;;12.59;100.00
5574;BME280;2563;52.242;7.956;2023-05-24T07:46:22;101527.16;;;12.61;100.00
5574;BME280;2563;52.242;7.956;2023-05-24T07:48:48;101525.50;;;13.06;100.00
5574;BME280;2563;52.242;7.956;2023-05-24T07:51:13;101547.00;;;13.07;100.00
5574;BME280;2563;52.242;7.956;2023-05-24T07:53:39;101558.47;;;12.93;100.00
5574;BME280;2563;52.242;7.956;2023-05-24T07:56:05;101562.50;;;13.55;100.00
5574;BME280;2563;52.242;7.956;2023-05-24T07:58:32;101566.06;;;14.29;100.00
5574;BME280;2563;52.242;7.956;2023-05-24T08:00:57;101570.66;;;14.53;100.00
5574;BME280;2563;52.242;7.956;2023-05-24T08:03:23;101579.41;;;14.12;100.00
5574;BME280;2563;52.242;7.956;2023-05-24T08:05:50;101594.47;;;13.94;100.00
5574;BME280;2563;52.242;7.956;2023-05-24T08:08:16;101593.31;;;13.67;100.00
5574;BME280;2563;52.242;7.956;2023-05-24T08:10:41;101598.19;;;13.81;100.00
5574;BME280;2563;52.242;7.956;2023-05-24T08:13:06;101600.84;;;13.78;100.00
5574;BME280;2563;52.242;7.956;2023-05-24T08:15:32;101590.25;;;13.47;100.00
5574;BME280;2563;52.242;7.956;2023-05-24T08:17:57;101604.91;;;12.98;100.00
5574;BME280;2563;52.242;7.956;2023-05-24T08:20:23;101611.16;;;12.86;100.00
5574;BME280;2563;52.242;7.956;2023-05-24T08:22:48;101611.41;;;12.69;100.00
5574;BME280;2563;52.242;7.956;2023-05-24T08:25:13;101606.44;;;12.57;100.00
5574;BME280;2563;52.242;7.956;2023-05-24T08:27:40;101601.72;;;12.84;100.00
5574;BME280;2563;52.242;7.956;2023-05-24T08:30:06;101614.63;;;12.84;100.00
5574;BME280;2563;52.242;7.956;2023-05-24T08:32:32;101613.66;;;12.89;100.00
5574;BME280;2563;52.242;7.956;2023-05-24T08:34:57;101609.94;;;13.06;100.00
5574;BME280;2563;52.242;7.956;2023-05-24T08:37:23;101610.41;;;12.78;100.00
5574;BME280;2563;52.242;7.956;2023-05-24T08:39:48;101614.34;;;13.01;100.00
5574;BME280;2563;52.242;7.956;2023-05-24T08:42:15;101608.91;;;13.16;100.00
5574;BME280;2563;52.242;7.956;2023-05-24T08:44:46;101604.97;;;13.43;100.00
5574;BME280;2563;52.242;7.956;2023-05-24T08:47:13;101604.78;;;13.06;100.00
5574;BME280;2563;52.242;7.956;2023-05-24T08:49:40;101607.25;;;13.60;100.00
5574;BME280;2563;52.242;7.956;2023-05-24T08:52:05;101607.03;;;13.69;100.00
5574;BME280;2563;52.242;7.956;2023-05-24T08:54:35;101610.28;;;13.37;100.00
5574;BME280;2563;52.242;7.956;2023-05-24T08:57:01;101611.84;;;13.46;100.00
5574;BME280;2563;52.242;7.956;2023-05-24T08:59:27;101617.72;;;13.54;100.00
5574;BME280;2563;52.242;7.956;2023-05-24T09:01:53;101624.81;;;13.43;100.00
5574;BME280;2563;52.242;7.956;2023-05-24T09:04:20;101617.59;;;13.60;100.00
5574;BME280;2563;52.242;7.956;2023-05-24T09:06:47;101619.84;;;13.32;100.00
5574;BME280;2563;52.242;7.956;2023-05-24T09:09:16;101627.56;;;13.33;100.00
5574;BME280;2563;52.242;7.956;2023-05-24T09:11:44;101625.13;;;13.27;100.00
5574;BME280;2563;52.242;7.956;2023-05-24T09:14:10;101620.69;;;13.34;100.00
5574;BME280;2563;52.242;7.956;2023-05-24T09:16:36;101623.06;;;13.45;100.00
5574;BME280;2563;52.242;7.956;2023-05-24T09:19:01;101627.28;;;13.01;100.00
5574;BME280;2563;52.242;7.956;2023-05-24T09:21:27;101626.50;;;12.94;100.00
5574;BME280;2563;52.242;7.956;2023-05-24T09:23:54;101626.78;;;12.77;100.00
5574;BME280;2563;52.242;7.956;2023-05-24T09:26:20;101634.88;;;12.55;100.00
5574;BME280;2563;52.242;7.956;2023-05-24T09:28:46;101616.38;;;12.82;100.00
5574;BME280;2563;52.242;7.956;2023-05-24T09:31:12;101618.22;;;12.75;100.00
5574;BME280;2563;52.242;7.956;2023-05-24T09:33:38;101615.22;;;12.99;100.00
5574;BME280;2563;52.242;7.956;2023-05-24T09:36:04;101611.97;;;12.88;100.00
5574;BME280;2563;52.242;7.956;2023-05-24T09:38:30;101612.59;;;13.01;100.00
5574;BME280;2563;52.242;7.956;2023-05-24T09:41:03;101614.63;;;12.84;100.00
5574;BME280;2563;52.242;7.956;2023-05-24T09:43:32;101614.72;;;12.79;100.00
5574;BME280;2563;52.242;7.956;2023-05-24T09:46:02;101618.34;;;12.66;100.00
5574;BME280;2563;52.242;7.956;2023-05-24T09:48:27;101603.28;;;12.92;100.00
5574;BME280;2563;52.242;7.956;2023-05-24T09:51:11;101607.19;;;12.64;100.00
5574;BME280;2563;52.242;7.956;2023-05-24T09:53:43;101608.91;;;12.65;100.00
5574;BME280;2563;52.242;7.956;2023-05-24T09:56:08;101608.00;;;12.67;100.00
5574;BME280;2563;52.242;7.956;2023-05-24T09:58:35;101616.47;;;12.77;100.00
5574;BME280;2563;52.242;7.956;2023-05-24T10:01:08;101613.66;;;12.89;100.00
5574;BME280;2563;52.242;7.956;2023-05-24T10:03:35;101608.06;;;13.14;100.00
5574;BME280;2563;52.242;7.956;2023-05-24T10:06:05;101602.06;;;13.12;100.00
5574;BME280;2563;52.242;7.956;2023-05-24T10:08:34;101607.13;;;13.19;100.00
5574;BME280;2563;52.242;7.956;2023-05-24T10:11:01;101609.44;;;13.36;100.00
5574;BME280;2563;52.242;7.956;2023-05-24T10:13:29;101615.44;;;13.37;100.00
5574;BME280;2563;52.242;7.956;2023-05-24T10:15:56;101623.56;;;13.14;100.00
5574;BME280;2563;52.242;7.956;2023-05-24T10:18:21;101621.13;;;13.56;100.00
5574;BME280;2563;52.242;7.956;2023-05-24T10:20:47;101614.69;;;13.75;100.00
5574;BME280;2563;52.242;7.956;2023-05-24T10:23:16;101615.09;;;13.55;100.00
5574;BME280;2563;52.242;7.956;2023-05-24T10:25:48;101617.84;;;13.91;100.00
5574;BME280;2563;52.242;7.956;2023-05-24T10:28:16;101617.88;;;13.88;100.00
5574;BME280;2563;52.242;7.956;2023-05-24T10:33:23;101615.94;;;13.99;100.00
5574;BME280;2563;52.242;7.956;2023-05-24T10:35:49;101617.78;;;13.93;100.00
5574;BME280;2563;52.242;7.956;2023-05-24T10:38:15;101626.22;;;13.60;100.00
5574;BME280;2563;52.242;7.956;2023-05-24T10:40:41;101628.16;;;13.49;100.00
5574;BME280;2563;52.242;7.956;2023-05-24T10:43:08;101621.78;;;13.66;100.00
5574;BME280;2563;52.242;7.956;2023-05-24T10:45:38;101616.34;;;13.34;100.00
5574;BME280;2563;52.242;7.956;2023-05-24T10:50:33;101627.31;;;13.49;100.00
5574;BME280;2563;52.242;7.956;2023-05-24T10:53:17;101619.78;;;13.36;100.00
5574;BME280;2563;52.242;7.956;2023-05-24T11:01:30;101607.22;;;14.03;100.00
5574;BME280;2563;52.242;7.956;2023-05-24T11:04:15;101608.47;;;14.24;100.00
5574;BME280;2563;52.242;7.956;2023-05-24T11:06:48;101611.88;;;14.65;100.00
5574;BME280;2563;52.242;7.956;2023-05-24T11:09:16;101618.03;;;14.60;100.00
5574;BME280;2563;52.242;7.956;2023-05-24T11:11:46;101623.38;;;14.54;100.00
5574;BME280;2563;52.242;7.956;2023-05-24T11:14:12;101615.50;;;14.58;100.00
5574;BME280;2563;52.242;7.956;2023-05-24T11:16:39;101622.66;;;14.45;100.00
5574;BME280;2563;52.242;7.956;2023-05-24T11:21:39;101621.47;;;14.21;100.00
5574;BME280;2563;52.242;7.956;2023-05-24T11:24:05;101619.59;;;14.30;100.00
5574;BME280;2563;52.242;7.956;2023-05-24T11:26:31;101624.25;;;14.14;100.00
5574;BME280;2563;52.242;7.956;2023-05-24T11:28:59;101616.66;;;14.06;100.00
5574;BME280;2563;52.242;7.956;2023-05-24T11:31:28;101621.19;;;13.95;100.00
5574;BME280;2563;52.242;7.956;2023-05-24T11:33:53;101619.97;;;13.69;100.00
5574;BME280;2563;52.242;7.956;2023-05-24T11:36:19;101612.59;;;13.94;100.00
5574;BME280;2563;52.242;7.956;2023-05-24T11:38:45;101611.38;;;14.11;100.00
5574;BME280;2563;52.242;7.956;2023-05-24T11:41:12;101618.28;;;14.10;100.00
5574;BME280;2563;52.242;7.956;2023-05-24T11:43:37;101611.19;;;14.18;100.00
5574;BME280;2563;52.242;7.956;2023-05-24T11:46:03;101605.06;;;14.61;100.00
5574;BME280;2563;52.242;7.956;2023-05-24T11:48:28;101606.69;;;15.00;100.00
5574;BME280;2563;52.242;7.956;2023-05-24T11:50:55;101601.69;;;15.26;100.00
5574;BME280;2563;52.242;7.956;2023-05-24T11:53:20;101595.44;;;15.65;100.00
5574;BME280;2563;52.242;7.956;2023-05-24T11:55:46;101592.59;;;16.32;100.00
5574;BME280;2563;52.242;7.956;2023-05-24T12:00:46;101602.56;;;16.72;100.00
5574;BME280;2563;52.242;7.956;2023-05-24T12:03:11;101602.94;;;16.33;100.00
5574;BME280;2563;52.242;7.956;2023-05-24T12:05:37;101603.25;;;16.51;100.00
5574;BME280;2563;52.242;7.956;2023-05-24T12:08:07;101598.41;;;15.82;100.00
5574;BME280;2563;52.242;7.956;2023-05-24T12:10:37;101610.03;;;15.38;100.00
5574;BME280;2563;52.242;7.956;2023-05-24T12:13:03;101614.03;;;15.17;100.00
5574;BME280;2563;52.242;7.956;2023-05-24T12:15:30;101608.84;;;15.17;100.00
5574;BME280;2563;52.242;7.956;2023-05-24T12:17:58;101615.75;;;14.83;100.00
5574;BME280;2563;52.242;7.956;2023-05-24T12:20:26;101620.69;;;14.58;100.00
5574;BME280;2563;52.242;7.956;2023-05-24T12:22:53;101618.81;;;14.24;100.00
5574;BME280;2563;52.242;7.956;2023-05-24T12:25:19;101609.25;;;14.30;100.00
5574;BME280;2563;52.242;7.956;2023-05-24T12:27:55;101612.84;;;14.22;100.00
5574;BME280;2563;52.242;7.956;2023-05-24T12:30:27;101609.16;;;14.33;100.00
5574;BME280;2563;52.242;7.956;2023-05-24T12:32:52;101610.22;;;14.63;100.00
5574;BME280;2563;52.242;7.956;2023-05-24T12:35:22;101606.41;;;14.78;100.00
5574;BME280;2563;52.242;7.956;2023-05-24T12:37:48;101605.38;;;14.83;100.00
5574;BME280;2563;52.242;7.956;2023-05-24T12:40:17;101600.97;;;15.21;100.00
5574;BME280;2563;52.242;7.956;2023-05-24T12:42:52;101604.00;;;15.04;100.00
5574;BME280;2563;52.242;7.956;2023-05-24T12:45:22;101606.19;;;14.87;100.00
5574;BME280;2563;52.242;7.956;2023-05-24T12:47:52;101604.09;;;15.01;100.00
5574;BME280;2563;52.242;7.956;2023-05-24T12:50:18;101608.94;;;15.14;100.00
5574;BME280;2563;52.242;7.956;2023-05-24T12:52:45;101617.06;;;14.65;100.00
5574;BME280;2563;52.242;7.956;2023-05-24T12:55:14;101604.00;;;14.70;100.00
5574;BME280;2563;52.242;7.956;2023-05-24T12:57:40;101612.22;;;14.86;100.00
5574;BME280;2563;52.242;7.956;2023-05-24T13:00:07;101601.44;;;15.03;100.00
5574;BME280;2563;52.242;7.956;2023-05-24T13:02:33;101609.41;;;14.95;100.00
5574;BME280;2563;52.242;7.956;2023-05-24T13:04:58;101602.50;;;15.28;100.00
5574;BME280;2563;52.242;7.956;2023-05-24T13:07:23;101610.56;;;15.49;100.00
5574;BME280;2563;52.242;7.956;2023-05-24T13:09:49;101596.59;;;15.55;100.00
5574;BME280;2563;52.242;7.956;2023-05-24T13:12:14;101602.47;;;15.92;100.00
5574;BME280;2563;52.242;7.956;2023-05-24T13:14:40;101589.97;;;16.87;100.00
5574;BME280;2563;52.242;7.956;2023-05-24T13:17:05;101594.47;;;16.55;100.00
5574;BME280;2563;52.242;7.956;2023-05-24T13:19:31;101593.38;;;16.89;100.00
5574;BME280;2563;52.242;7.956;2023-05-24T13:21:57;101590.03;;;17.10;100.00
5574;BME280;2563;52.242;7.956;2023-05-24T13:24:22;101587.53;;;16.82;100.00
5574;BME280;2563;52.242;7.956;2023-05-24T13:26:48;101606.03;;;16.45;100.00
5574;BME280;2563;52.242;7.956;2023-05-24T13:29:13;101601.09;;;16.09;100.00
5574;BME280;2563;52.242;7.956;2023-05-24T13:31:39;101608.53;;;15.60;100.00
5574;BME280;2563;52.242;7.956;2023-05-24T13:34:05;101608.16;;;15.10;100.00